Time;durP1;ratioP1;P1;durP2;ratioP2;P2;SDS_P1;SDS_P2;PMS_P1;PMS_P2;Temp;Humidity;BMP_temperature;BMP_pressure;BME280_temperature;BME280_humidity;BME280_pressure;Samples;Min_cycle;Max_cycle;Signal;HPM_P1;HPM_P2
2021/04/20 00:01:08;;;;;;;3.30;3.10;;;;;;;20.13;26.88;96018.66;5044950;28;20084;-60
2021/04/20 00:03:37;;;;;;;2.92;2.65;;;;;;;20.11;26.79;96018.13;5045852;28;20084;-59
2021/04/20 00:06:04;;;;;;;3.03;2.83;;;;;;;20.09;27.06;96017.59;5044600;28;20060;-59
2021/04/20 00:08:29;;;;;;;3.17;2.90;;;;;;;20.07;27.05;96017.09;5028914;28;20049;-60
2021/04/20 00:10:55;;;;;;;2.70;2.50;;;;;;;20.05;26.75;96019.28;5046011;28;20051;-59
2021/04/20 00:13:20;;;;;;;2.65;2.35;;;;;;;20.03;27.01;96024.19;5046674;28;20053;-59
2021/04/20 00:15:46;;;;;;;2.88;2.50;;;;;;;20.01;27.07;96015.50;5044145;28;20045;-59
2021/04/20 00:18:12;;;;;;;3.10;2.40;;;;;;;20.00;26.82;96013.91;5043984;28;20143;-58
2021/04/20 00:20:37;;;;;;;2.40;2.20;;;;;;;19.98;26.80;96016.09;5045760;28;20095;-59
2021/04/20 00:23:06;;;;;;;2.83;2.55;;;;;;;19.95;26.83;96014.75;5045132;28;20061;-58
2021/04/20 00:25:32;;;;;;;3.38;3.08;;;;;;;19.93;26.89;96016.16;5047378;28;20519;-59
2021/04/20 00:27:58;;;;;;;2.72;2.53;;;;;;;19.92;27.08;96014.53;5025251;28;20132;-58
2021/04/20 00:30:23;;;;;;;3.15;2.60;;;;;;;19.90;26.70;96012.09;5044725;28;20079;-59
2021/04/20 00:32:49;;;;;;;2.78;2.58;;;;;;;19.88;26.76;96006.16;5028695;28;20069;-58
2021/04/20 00:35:15;;;;;;;2.83;2.38;;;;;;;19.88;26.99;96013.50;5045034;28;20049;-59
2021/04/20 00:37:40;;;;;;;3.10;2.60;;;;;;;19.84;26.97;96003.19;5045177;28;20057;-58
2021/04/20 00:40:07;;;;;;;2.63;2.42;;;;;;;19.83;26.74;96004.31;5043812;28;20142;-59
2021/04/20 00:42:49;;;;;;;2.78;2.58;;;;;;;19.80;26.81;96002.13;5043499;28;20048;-59
2021/04/20 00:45:16;;;;;;;3.35;2.50;;;;;;;19.80;26.78;96001.34;5044670;28;20108;-57
2021/04/20 00:47:42;;;;;;;2.67;2.47;;;;;;;19.78;26.85;95996.19;5045462;28;20056;-58
2021/04/20 00:50:10;;;;;;;2.63;2.42;;;;;;;19.77;26.57;95999.22;5045329;28;20459;-60
2021/04/20 00:52:35;;;;;;;2.80;2.60;;;;;;;19.74;26.54;96006.00;5044965;28;20086;-57
2021/04/20 00:55:01;;;;;;;2.83;2.60;;;;;;;19.72;26.84;96005.47;5045318;28;20440;-59
2021/04/20 00:57:26;;;;;;;2.65;2.45;;;;;;;19.71;26.97;95998.44;5045126;28;20136;-58
2021/04/20 00:59:52;;;;;;;2.47;2.28;;;;;;;19.69;26.80;96003.31;5044091;28;20511;-58
2021/04/20 01:02:17;;;;;;;2.50;2.30;;;;;;;19.67;26.80;95997.38;5045010;28;20083;-58
2021/04/20 01:04:43;;;;;;;2.78;2.58;;;;;;;19.67;26.58;95999.28;5026819;28;20084;-57
2021/04/20 01:07:09;;;;;;;2.65;2.42;;;;;;;19.64;26.61;95998.75;5043350;28;20578;-58
2021/04/20 01:09:34;;;;;;;2.60;2.15;;;;;;;19.63;26.94;95988.97;5043408;28;20041;-58
2021/04/20 01:12:00;;;;;;;2.40;2.20;;;;;;;19.62;26.64;95990.09;5043079;28;20098;-57
2021/04/20 01:14:25;;;;;;;2.45;2.25;;;;;;;19.61;26.56;95991.16;5043368;28;20495;-57
2021/04/20 01:16:51;;;;;;;2.15;2.05;;;;;;;19.60;26.76;95992.28;5045330;28;20052;-57
2021/04/20 01:19:17;;;;;;;2.85;2.40;;;;;;;19.60;26.38;95994.19;5043690;28;20076;-57
2021/04/20 01:21:43;;;;;;;2.58;2.38;;;;;;;19.58;26.54;95989.03;5043090;28;20439;-59
2021/04/20 01:24:09;;;;;;;2.80;2.60;;;;;;;19.57;26.77;95992.84;5043314;28;20053;-59
2021/04/20 01:26:42;;;;;;;3.80;2.60;;;;;;;19.57;26.39;95986.59;5047791;28;20048;-58
2021/04/20 01:29:08;;;;;;;2.55;2.38;;;;;;;19.56;26.85;95987.72;5043184;28;20163;-59
2021/04/20 01:31:35;;;;;;;2.53;2.40;;;;;;;19.54;27.05;95982.56;5044062;28;20878;-59
2021/04/20 01:34:01;;;;;;;4.97;2.60;;;;;;;19.53;26.51;95974.69;5040709;28;20053;-59
2021/04/20 01:36:27;;;;;;;4.40;2.63;;;;;;;19.52;26.70;95987.47;5042984;28;20181;-60
2021/04/20 01:38:54;;;;;;;3.83;2.70;;;;;;;19.51;26.63;95990.47;5043438;28;20044;-61
2021/04/20 01:41:20;;;;;;;3.10;2.75;;;;;;;19.50;26.62;95994.28;5042204;28;20128;-60
2021/04/20 01:43:46;;;;;;;2.83;2.63;;;;;;;19.49;26.44;95984.50;5044348;28;20106;-59
2021/04/20 01:46:13;;;;;;;3.05;2.75;;;;;;;19.48;26.36;95985.59;5043471;28;20482;-59
2021/04/20 01:48:38;;;;;;;5.18;3.50;;;;;;;19.47;26.53;95989.41;5044134;28;20045;-59
2021/04/20 01:51:04;;;;;;;2.97;2.67;;;;;;;19.46;26.62;95982.38;5044347;28;20095;-60
2021/04/20 01:53:30;;;;;;;3.50;2.70;;;;;;;19.44;26.54;95978.03;5042731;28;20068;-60
2021/04/20 01:56:00;;;;;;;2.60;2.40;;;;;;;19.42;26.63;95977.50;5026707;28;20520;-59
2021/04/20 01:58:26;;;;;;;3.22;2.80;;;;;;;19.40;26.62;95976.97;5044603;28;20128;-60
2021/04/20 02:00:52;;;;;;;3.47;3.17;;;;;;;19.40;26.45;95970.72;5026975;28;20052;-59
2021/04/20 02:03:17;;;;;;;3.22;2.85;;;;;;;19.38;26.30;95979.16;5043029;28;20063;-59
2021/04/20 02:05:43;;;;;;;2.92;2.72;;;;;;;19.37;26.50;95977.56;5026683;28;20500;-59
2021/04/20 02:08:09;;;;;;;3.20;2.90;;;;;;;19.37;26.57;95979.47;5026074;28;20170;-59
2021/04/20 02:10:34;;;;;;;2.75;2.55;;;;;;;19.35;26.39;95976.22;5042781;28;20053;-59
2021/04/20 02:13:00;;;;;;;4.45;3.08;;;;;;;19.34;26.72;95978.09;5026743;28;20108;-59
2021/04/20 02:15:26;;;;;;;3.65;3.00;;;;;;;19.31;26.46;95978.69;5026028;28;20076;-60
2021/04/20 02:17:51;;;;;;;6.70;3.00;;;;;;;19.32;26.43;95982.22;5044834;28;20067;-60
2021/04/20 02:20:17;;;;;;;2.90;2.70;;;;;;;19.30;26.48;95982.50;5025499;28;20132;-59
2021/04/20 02:22:44;;;;;;;2.90;2.70;;;;;;;19.29;26.38;95980.09;5043670;28;20362;-60
2021/04/20 02:25:11;;;;;;;2.83;2.60;;;;;;;19.27;26.84;95972.22;5043534;28;20412;-59
2021/04/20 02:27:37;;;;;;;2.95;2.63;;;;;;;19.26;26.64;95975.19;5046109;28;20408;-61
2021/04/20 02:30:04;;;;;;;2.97;2.78;;;;;;;19.25;26.41;95979.84;5043871;28;20068;-60
2021/04/20 02:32:29;;;;;;;3.25;2.95;;;;;;;19.24;26.52;95967.34;5026307;28;20140;-60
2021/04/20 02:34:59;;;;;;;2.80;2.60;;;;;;;19.24;26.31;95975.47;5024647;28;20708;-60
2021/04/20 02:37:25;;;;;;;3.53;2.50;;;;;;;19.24;26.47;95978.19;5037425;28;20063;-62
2021/04/20 02:39:50;;;;;;;3.63;2.85;;;;;;;19.22;26.69;95972.25;5042902;28;20045;-61
2021/04/20 02:42:16;;;;;;;3.80;2.65;;;;;;;19.21;26.47;95968.72;5043808;28;20603;-61
2021/04/20 02:44:41;;;;;;;3.08;2.88;;;;;;;19.19;26.70;95972.81;5025937;28;20072;-60
2021/04/20 02:47:07;;;;;;;2.78;2.55;;;;;;;19.17;26.66;95962.25;5026161;28;20080;-61
2021/04/20 02:49:34;;;;;;;3.05;2.80;;;;;;;19.18;26.93;95965.75;5026266;28;20747;-61
2021/04/20 02:52:00;;;;;;;3.13;2.80;;;;;;;19.16;26.77;95965.25;5039324;28;20463;-61
2021/04/20 02:54:25;;;;;;;2.72;2.50;;;;;;;19.15;26.98;95964.44;5041767;28;20077;-61
2021/04/20 02:56:51;;;;;;;2.67;2.45;;;;;;;19.14;26.86;95962.81;5042889;28;20060;-61
2021/04/20 02:59:17;;;;;;;2.83;2.63;;;;;;;19.10;26.54;95959.06;5026287;28;20568;-61
2021/04/20 03:01:42;;;;;;;3.17;2.70;;;;;;;19.11;26.65;95960.66;5025700;28;20409;-60
2021/04/20 03:04:12;;;;;;;2.90;2.53;;;;;;;19.10;26.82;95961.78;5026866;28;20041;-61
2021/04/20 03:06:40;;;;;;;3.45;3.15;;;;;;;19.08;26.89;95957.72;5045374;28;20113;-61
2021/04/20 03:09:05;;;;;;;3.17;2.70;;;;;;;19.08;27.17;95955.00;5029424;28;20103;-61
2021/04/20 03:11:37;;;;;;;2.20;2.00;;;;;;;19.06;26.83;95951.78;5044629;28;20057;-61
2021/04/20 03:14:05;;;;;;;2.90;2.70;;;;;;;19.04;26.80;95950.13;5026972;28;20056;-61
2021/04/20 03:16:30;;;;;;;2.78;2.53;;;;;;;19.03;26.88;95953.13;5045867;28;20055;-60
2021/04/20 03:18:57;;;;;;;3.03;2.70;;;;;;;19.02;26.98;95959.66;5045635;28;20064;-61
2021/04/20 03:21:23;;;;;;;2.58;2.38;;;;;;;19.00;26.90;95954.50;5029762;28;20126;-61
2021/04/20 03:23:48;;;;;;;2.65;2.45;;;;;;;19.00;26.96;95951.00;5047325;28;20032;-59
2021/04/20 03:26:34;;;;;;;2.65;2.45;;;;;;;18.98;26.81;95953.97;5046314;28;20118;-60
2021/04/20 03:29:01;;;;;;;2.50;2.30;;;;;;;18.98;26.81;95953.19;5046441;28;20504;-60
2021/04/20 03:31:26;;;;;;;3.25;2.47;;;;;;;18.96;26.69;95955.38;5029040;28;20041;-60
2021/04/20 03:34:17;;;;;;;2.78;2.58;;;;;;;18.93;26.78;95954.03;5046493;28;20045;-58
2021/04/20 03:36:49;;;;;;;2.53;2.33;;;;;;;18.94;26.94;95952.13;5044915;28;20293;-60
2021/04/20 03:39:19;;;;;;;3.10;2.85;;;;;;;18.91;26.67;95955.38;5029309;28;20573;-60
2021/04/20 03:42:02;;;;;;;2.85;2.55;;;;;;;18.88;26.68;95943.19;5044261;28;20052;-59
2021/04/20 03:44:41;;;;;;;2.53;2.33;;;;;;;18.88;27.17;95954.06;5043282;28;20057;-59
2021/04/20 03:47:21;;;;;;;2.55;2.30;;;;;;;18.86;26.87;95953.53;5042657;28;20160;-59
2021/04/20 03:49:47;;;;;;;2.80;2.60;;;;;;;18.86;26.77;95944.59;5042872;28;20041;-59
2021/04/20 03:52:32;;;;;;;2.70;2.50;;;;;;;18.83;26.79;95951.41;5046800;28;20417;-59
2021/04/20 03:54:57;;;;;;;3.42;2.90;;;;;;;18.83;26.79;95948.69;5045280;28;20131;-59
2021/04/20 03:57:24;;;;;;;2.90;2.70;;;;;;;18.82;26.75;95952.47;5028763;28;20080;-61
2021/04/20 03:59:49;;;;;;;2.33;2.13;;;;;;;18.81;27.14;95948.16;5029512;28;20056;-59
2021/04/20 04:02:15;;;;;;;2.55;2.20;;;;;;;18.79;26.84;95942.19;5044746;28;20087;-59
2021/04/20 04:04:42;;;;;;;2.58;2.38;;;;;;;18.77;27.30;95945.16;5011036;28;20520;-58
2021/04/20 04:07:07;;;;;;;2.50;2.30;;;;;;;18.77;26.97;95936.22;5028286;28;20045;-59
2021/04/20 04:09:33;;;;;;;2.92;2.72;;;;;;;18.76;27.07;95943.56;5044348;28;20479;-58
2021/04/20 04:12:01;;;;;;;2.38;2.28;;;;;;;18.74;26.86;95943.03;5044196;28;20048;-61
2021/04/20 04:14:28;;;;;;;2.70;2.50;;;;;;;18.73;26.87;95943.28;5044227;28;20068;-61
2021/04/20 04:16:58;;;;;;;2.42;2.22;;;;;;;18.72;26.93;95942.50;5028115;28;20048;-61
2021/04/20 04:19:24;;;;;;;2.88;2.67;;;;;;;18.71;27.03;95942.78;5028083;28;20508;-59
2021/04/20 04:21:53;;;;;;;2.47;2.30;;;;;;;18.69;27.05;95939.53;5028115;28;20155;-61
2021/04/20 04:24:18;;;;;;;2.20;2.05;;;;;;;18.69;27.03;95942.25;5044615;28;20478;-61
2021/04/20 04:26:52;;;;;;;2.47;2.35;;;;;;;18.67;27.07;95947.13;5044824;28;20077;-61
2021/04/20 04:29:19;;;;;;;2.58;2.38;;;;;;;18.67;26.93;95942.50;5030990;28;20069;-61
2021/04/20 04:31:45;;;;;;;2.60;2.40;;;;;;;18.64;26.86;95938.47;5044846;28;20514;-61
2021/04/20 04:34:15;;;;;;;2.67;2.47;;;;;;;18.63;27.08;95936.88;5026494;28;20053;-61
2021/04/20 04:36:41;;;;;;;3.65;2.78;;;;;;;18.62;27.14;95942.56;5043543;28;20057;-62
2021/04/20 04:39:10;;;;;;;3.03;2.83;;;;;;;18.60;27.02;95940.13;5027730;28;20052;-61
2021/04/20 04:41:36;;;;;;;2.63;2.42;;;;;;;18.60;27.13;95945.56;5044906;28;20515;-61
2021/04/20 04:44:02;;;;;;;2.60;2.40;;;;;;;18.57;27.03;95943.41;5040981;28;20084;-61
2021/04/20 04:46:27;;;;;;;2.40;2.30;;;;;;;18.58;27.04;95947.72;5043905;28;20072;-61
2021/04/20 04:48:53;;;;;;;2.97;2.67;;;;;;;18.56;26.81;95940.97;5045139;28;20082;-61
2021/04/20 04:51:19;;;;;;;2.38;2.28;;;;;;;18.55;27.00;95942.88;5046202;28;20032;-61
2021/04/20 04:53:45;;;;;;;2.78;2.58;;;;;;;18.53;27.24;95939.63;5043564;28;20467;-60
2021/04/20 04:56:11;;;;;;;2.90;2.70;;;;;;;18.53;27.09;95936.94;5044714;28;20072;-61
2021/04/20 04:58:36;;;;;;;2.80;2.60;;;;;;;18.51;27.22;95939.13;5010171;28;20102;-61
2021/04/20 05:01:02;;;;;;;2.83;2.63;;;;;;;18.50;27.15;95939.38;5043159;28;20107;-61
2021/04/20 05:03:28;;;;;;;3.60;3.30;;;;;;;18.49;27.31;95940.47;5042971;28;20041;-60
2021/04/20 05:05:57;;;;;;;5.05;3.70;;;;;;;18.49;27.25;95943.16;5025320;28;20059;-61
2021/04/20 05:08:23;;;;;;;3.92;3.53;;;;;;;18.48;27.13;95941.56;5042703;28;20937;-61
2021/04/20 05:10:49;;;;;;;4.05;3.65;;;;;;;18.46;26.71;95939.13;5044883;28;20076;-61
2021/04/20 05:13:15;;;;;;;4.20;3.70;;;;;;;18.45;27.21;95940.22;5042796;28;20064;-60
2021/04/20 05:15:40;;;;;;;4.22;3.85;;;;;;;18.44;27.18;95944.03;5043183;28;20395;-61
2021/04/20 05:18:13;;;;;;;4.28;3.88;;;;;;;18.41;26.92;95945.41;5044071;28;20730;-61
2021/04/20 05:20:42;;;;;;;3.92;3.63;;;;;;;18.42;27.23;95948.91;5043868;28;20499;-61
2021/04/20 05:23:08;;;;;;;5.15;4.13;;;;;;;18.40;27.40;95942.97;5043306;28;20040;-59
2021/04/20 05:25:34;;;;;;;3.75;3.38;;;;;;;18.41;27.76;95950.03;5026161;28;20415;-58
2021/04/20 05:28:00;;;;;;;5.97;3.55;;;;;;;18.38;27.57;95948.66;5025676;28;20523;-60
2021/04/20 05:30:26;;;;;;;4.03;3.63;;;;;;;18.40;27.78;95942.97;5025137;28;20132;-62
2021/04/20 05:32:52;;;;;;;4.25;3.78;;;;;;;18.39;27.84;95950.28;5045123;28;20059;-61
2021/04/20 05:35:20;;;;;;;3.38;3.08;;;;;;;18.38;27.80;95956.78;5027551;28;20522;-60
2021/04/20 05:37:46;;;;;;;4.40;3.40;;;;;;;18.38;28.15;95956.78;5044809;28;20045;-60
2021/04/20 05:40:21;;;;;;;4.00;3.60;;;;;;;18.37;27.90;95960.59;5043053;28;20490;-61
2021/04/20 05:42:47;;;;;;;;;;;;;;;18.36;27.64;95959.00;5041284;28;20048;-61
2021/04/20 05:45:14;;;;;;;4.00;3.70;;;;;;;18.34;28.09;95955.75;5042226;28;20197;-61
2021/04/20 05:47:44;;;;;;;3.50;3.20;;;;;;;18.33;28.38;95961.44;5042725;28;20044;-58
2021/04/20 05:50:13;;;;;;;4.15;3.75;;;;;;;18.33;28.37;95964.16;5043955;28;20084;-61
2021/04/20 05:52:39;;;;;;;3.92;3.55;;;;;;;18.32;28.15;95968.78;5040287;28;20059;-60
2021/04/20 05:55:05;;;;;;;3.95;3.65;;;;;;;18.33;28.25;95966.88;5042584;28;20060;-60
2021/04/20 05:57:31;;;;;;;4.90;3.90;;;;;;;18.32;28.28;95970.66;5042285;28;20127;-61
2021/04/20 05:59:58;;;;;;;4.60;4.05;;;;;;;18.32;28.53;95967.94;5042289;28;20044;-60
2021/04/20 06:02:30;;;;;;;4.18;3.25;;;;;;;18.32;28.38;95967.94;5037926;28;20079;-59
2021/04/20 06:04:58;;;;;;;4.90;3.58;;;;;;;18.32;28.64;95967.94;5042981;28;20466;-59
2021/04/20 06:07:24;;;;;;;4.25;3.80;;;;;;;18.32;28.28;95970.66;5040719;28;20102;-60
2021/04/20 06:09:50;;;;;;;4.38;3.97;;;;;;;18.33;28.70;95972.28;5027182;28;20512;-59
2021/04/20 06:12:15;;;;;;;3.92;3.53;;;;;;;18.32;28.50;95971.50;5043045;28;20070;-60
2021/04/20 06:14:41;;;;;;;4.65;3.35;;;;;;;18.32;28.42;95979.63;5042410;28;20637;-60
2021/04/20 06:17:07;;;;;;;3.65;3.22;;;;;;;18.31;28.67;95975.28;5043377;28;20045;-60
2021/04/20 06:19:34;;;;;;;4.07;3.47;;;;;;;18.32;28.67;95970.66;5043011;28;20056;-62
2021/04/20 06:22:00;;;;;;;4.28;3.40;;;;;;;18.32;28.61;95967.94;5044390;28;20074;-58
2021/04/20 06:24:26;;;;;;;4.93;4.25;;;;;;;18.32;28.44;95970.66;5044394;28;20147;-61
2021/04/20 06:26:51;;;;;;;4.75;4.00;;;;;;;18.32;28.88;95968.78;5027574;28;20077;-60
2021/04/20 06:29:17;;;;;;;4.78;4.30;;;;;;;18.31;28.64;95964.44;5026071;28;20124;-59
2021/04/20 06:31:42;;;;;;;3.70;3.40;;;;;;;18.31;28.88;95975.28;5023187;28;20164;-59
2021/04/20 06:34:08;;;;;;;3.88;3.58;;;;;;;18.32;28.63;95979.63;5025957;28;20069;-59
2021/04/20 06:36:34;;;;;;;3.80;3.45;;;;;;;18.31;28.74;95977.97;5024369;28;20098;-59
2021/04/20 06:38:59;;;;;;;3.60;3.30;;;;;;;18.31;28.56;95980.69;5026634;28;20049;-60
2021/04/20 06:41:27;;;;;;;4.22;3.83;;;;;;;18.31;28.53;95980.69;5029952;28;20121;-60
2021/04/20 06:43:58;;;;;;;4.40;3.88;;;;;;;18.30;29.10;95978.25;5030067;28;20104;-58
2021/04/20 06:46:30;;;;;;;4.50;4.10;;;;;;;18.32;28.72;95989.63;5044136;28;20045;-61
2021/04/20 06:49:10;;;;;;;3.80;3.50;;;;;;;18.31;28.63;95983.41;5045811;28;20404;-58
2021/04/20 06:51:42;;;;;;;3.25;3.05;;;;;;;18.31;29.03;95980.69;5030243;28;20072;-59
2021/04/20 06:54:25;;;;;;;4.03;3.40;;;;;;;18.30;28.67;95980.97;5046865;28;20048;-58
2021/04/20 06:57:03;;;;;;;4.45;3.42;;;;;;;18.27;28.89;95978.81;5047008;28;20051;-59
2021/04/20 06:59:48;;;;;;;4.43;3.47;;;;;;;18.30;28.97;95984.50;5042099;28;20057;-58
2021/04/20 07:02:38;;;;;;;3.95;3.30;;;;;;;18.30;29.17;95981.81;5024385;28;20049;-59
2021/04/20 07:05:06;;;;;;;3.85;3.35;;;;;;;18.32;29.19;95987.75;5041794;28;20045;-61
2021/04/20 07:07:31;;;;;;;5.13;3.30;;;;;;;18.31;29.26;95988.03;5045860;28;20128;-61
2021/04/20 07:10:12;;;;;;;6.18;3.38;;;;;;;18.30;29.43;95986.38;5047058;28;20140;-60
2021/04/20 07:12:38;;;;;;;3.67;3.08;;;;;;;18.28;29.67;95983.97;5047639;28;20049;-61
2021/04/20 07:15:04;;;;;;;5.32;2.80;;;;;;;18.30;29.89;95986.38;5045910;28;20079;-61
2021/04/20 07:17:50;;;;;;;4.82;3.45;;;;;;;18.29;30.18;95987.50;5046912;28;20068;-59
2021/04/20 07:20:54;;;;;;;3.47;3.00;;;;;;;18.28;29.77;95994.81;5043902;28;20312;-60
2021/04/20 07:23:31;;;;;;;6.03;3.78;;;;;;;18.28;30.09;95992.13;5045158;28;20055;-60
2021/04/20 07:26:26;;;;;;;4.55;3.70;;;;;;;18.28;30.15;95992.13;5030458;28;20052;-59
2021/04/20 07:29:09;;;;;;;4.70;4.20;;;;;;;18.28;30.22;95996.69;5046869;28;20058;-60
2021/04/20 07:31:44;;;;;;;4.53;4.10;;;;;;;18.27;30.29;95995.91;5045587;28;20547;-61
2021/04/20 07:34:13;;;;;;;;;;;;;;;18.27;30.16;95986.97;5037780;28;20041;-62
2021/04/20 07:37:03;;;;;;;5.40;4.70;;;;;;;18.26;30.30;95998.88;5046147;28;19929;-61
2021/04/20 07:39:34;;;;;;;5.25;4.75;;;;;;;18.25;30.41;95995.38;5046471;28;20041;-62
2021/04/20 07:42:23;;;;;;;6.72;4.00;;;;;;;18.23;30.45;95990.22;5028020;28;20163;-62
2021/04/20 07:44:59;;;;;;;7.35;4.10;;;;;;;18.20;30.86;95995.41;5037696;28;20049;-60
2021/04/20 07:47:26;;;;;;;6.30;4.65;;;;;;;18.15;30.74;95990.78;5044697;28;20419;-62
2021/04/20 07:50:17;;;;;;;5.68;4.22;;;;;;;18.10;30.57;95988.09;5028525;28;20055;-60
2021/04/20 07:53:15;;;;;;;7.88;4.70;;;;;;;18.06;31.07;95991.66;5044181;28;20612;-60
2021/04/20 07:55:53;;;;;;;7.88;3.90;;;;;;;18.03;30.81;95995.75;5042867;28;20048;-61
2021/04/20 07:58:20;;;;;;;6.25;4.30;;;;;;;18.01;31.08;95992.50;5044219;28;20045;-61
2021/04/20 08:00:51;;;;;;;8.93;4.68;;;;;;;17.99;30.87;95991.97;5026619;28;20124;-62
2021/04/20 08:03:44;;;;;;;4.68;4.20;;;;;;;18.00;30.81;95993.56;5024793;28;20081;-61
2021/04/20 08:06:14;;;;;;;7.03;4.82;;;;;;;18.00;30.95;95988.94;5038387;28;20045;-61
2021/04/20 08:08:52;;;;;;;7.90;3.92;;;;;;;18.01;30.97;95997.91;5044087;28;20385;-60
2021/04/20 08:11:31;;;;;;;4.85;3.70;;;;;;;18.00;30.85;95988.16;5043751;28;20115;-62
2021/04/20 08:14:08;;;;;;;5.15;3.90;;;;;;;18.01;30.70;95987.88;5039410;28;20098;-61
2021/04/20 08:16:36;;;;;;;3.97;3.60;;;;;;;18.04;30.75;95989.22;5041807;28;20037;-61
2021/04/20 08:19:22;;;;;;;5.55;4.00;;;;;;;18.03;31.03;95982.19;5044983;28;20040;-58
2021/04/20 08:21:49;;;;;;;4.30;3.47;;;;;;;18.06;31.33;95987.03;5028725;28;20060;-58
2021/04/20 08:24:24;;;;;;;6.03;4.30;;;;;;;18.07;31.45;95987.84;5042610;28;20049;-62
2021/04/20 08:26:53;;;;;;;7.28;4.40;;;;;;;18.05;31.65;95988.13;5020408;28;20113;-63
2021/04/20 08:29:29;;;;;;;5.32;4.10;;;;;;;18.02;31.60;95985.97;5028933;28;20110;-60
2021/04/20 08:32:04;;;;;;;4.72;3.90;;;;;;;18.00;31.59;95985.44;5045384;28;20036;-60
2021/04/20 08:34:32;;;;;;;5.85;4.13;;;;;;;17.99;31.38;95987.34;5043916;28;20048;-63
2021/04/20 08:37:12;;;;;;;5.97;3.85;;;;;;;18.01;31.52;95992.50;5045151;28;20253;-62
2021/04/20 08:39:49;;;;;;;8.30;4.65;;;;;;;18.00;31.64;95988.16;5041451;28;20608;-61
2021/04/20 08:42:26;;;;;;;5.63;4.00;;;;;;;18.00;31.63;95985.44;5042836;28;20053;-63
2021/04/20 08:45:01;;;;;;;5.63;4.35;;;;;;;18.00;31.93;95988.94;5041135;28;20704;-63
2021/04/20 08:48:00;;;;;;;6.93;4.60;;;;;;;18.01;32.09;95987.06;5042561;28;20052;-65
2021/04/20 08:50:25;;;;;;;7.78;5.00;;;;;;;18.00;32.29;95988.94;5042373;28;20731;-61
2021/04/20 08:53:01;;;;;;;6.65;5.97;;;;;;;17.99;32.33;95992.75;5025738;28;20048;-62
2021/04/20 08:55:46;;;;;;;8.38;5.05;;;;;;;18.02;32.15;95991.38;5042406;28;20060;-61
2021/04/20 08:58:30;;;;;;;7.03;6.10;;;;;;;18.02;32.18;95991.38;5043225;28;20080;-61
2021/04/20 09:00:58;;;;;;;8.52;5.45;;;;;;;18.03;32.43;95991.13;5038326;28;20577;-60
2021/04/20 09:03:39;;;;;;;7.07;6.40;;;;;;;18.03;32.35;95998.44;5043849;28;20061;-61
2021/04/20 09:06:08;;;;;;;9.25;6.82;;;;;;;18.03;32.64;95985.69;5043384;28;20048;-59
2021/04/20 09:08:44;;;;;;;10.00;6.30;;;;;;;18.02;32.85;95980.56;5026852;28;20064;-59
2021/04/20 09:11:20;;;;;;;8.15;6.22;;;;;;;18.03;32.79;95985.69;5040509;28;20095;-60
2021/04/20 09:14:08;;;;;;;7.18;6.47;;;;;;;18.03;32.76;95987.59;5040252;28;20076;-62
2021/04/20 09:16:40;;;;;;;8.18;6.22;;;;;;;18.03;32.68;95985.69;5038376;28;20788;-60
2021/04/20 09:19:06;;;;;;;7.35;5.40;;;;;;;18.05;32.67;95990.03;5043875;28;20598;-60
2021/04/20 09:21:43;;;;;;;8.38;7.07;;;;;;;18.05;32.95;95982.72;5023865;28;20103;-59
2021/04/20 09:24:19;;;;;;;7.80;6.63;;;;;;;18.06;32.97;95981.63;5039922;28;20053;-60
2021/04/20 09:27:02;;;;;;;6.72;6.03;;;;;;;18.07;33.19;95985.97;5042452;28;20556;-59
2021/04/20 09:29:44;;;;;;;6.85;6.15;;;;;;;18.07;33.02;95990.56;5043431;28;20052;-59
2021/04/20 09:32:21;;;;;;;7.13;6.43;;;;;;;18.07;32.85;95988.69;5044124;28;20535;-60
2021/04/20 09:34:49;;;;;;;8.10;7.15;;;;;;;18.10;32.94;95990.81;5041129;28;20049;-61
2021/04/20 09:37:14;;;;;;;6.47;5.88;;;;;;;18.11;33.01;95983.50;5009666;28;20091;-59
2021/04/20 09:39:42;;;;;;;6.95;6.07;;;;;;;18.13;33.00;95990.25;5041933;28;20508;-58
2021/04/20 09:42:08;;;;;;;5.95;5.40;;;;;;;18.16;32.91;95986.19;5026355;28;20066;-60
2021/04/20 09:44:49;;;;;;;7.22;6.57;;;;;;;18.16;32.95;95983.50;5025791;28;20044;-60
2021/04/20 09:47:37;;;;;;;7.90;7.20;;;;;;;18.15;33.26;95976.44;5025352;28;20049;-58
2021/04/20 09:50:14;;;;;;;9.50;6.72;;;;;;;18.16;32.98;95973.44;5038160;28;20060;-59
2021/04/20 09:53:00;;;;;;;7.88;6.72;;;;;;;18.17;33.44;95974.25;5039689;28;20049;-58
2021/04/20 09:55:35;;;;;;;7.95;6.03;;;;;;;18.18;33.47;95968.56;5024088;28;20052;-60
2021/04/20 09:58:02;;;;;;;7.88;6.03;;;;;;;18.20;33.16;95966.38;5024061;28;20527;-61
2021/04/20 10:00:27;;;;;;;6.78;6.13;;;;;;;18.21;33.13;95968.00;5025840;28;20726;-59
2021/04/20 10:03:17;;;;;;;8.05;6.28;;;;;;;18.22;33.24;95969.63;5009040;28;20057;-61
2021/04/20 10:05:49;;;;;;;6.90;5.80;;;;;;;18.23;33.25;95968.53;5040818;28;20378;-59
2021/04/20 10:08:34;;;;;;;7.22;6.07;;;;;;;18.25;33.48;95970.16;5041612;28;20060;-62
2021/04/20 10:11:06;;;;;;;7.40;5.85;;;;;;;18.26;33.13;95966.34;5043728;28;20110;-62
2021/04/20 10:13:41;;;;;;;6.68;5.72;;;;;;;18.28;33.24;95966.88;5028782;28;20059;-62
2021/04/20 10:16:24;;;;;;;8.50;5.93;;;;;;;18.29;32.84;95954.97;5047107;28;20113;-64
2021/04/20 10:19:08;;;;;;;13.35;8.07;;;;;;;18.30;33.05;95957.41;5048600;28;20056;-63
2021/04/20 10:22:10;;;;;;;9.18;7.53;;;;;;;18.33;33.09;95947.91;5047964;28;20094;-63
2021/04/20 10:24:36;;;;;;;10.30;6.35;;;;;;;18.36;33.15;95948.16;5048404;28;20099;-63
2021/04/20 10:27:03;;;;;;;17.90;8.05;;;;;;;18.38;33.45;95950.56;5046258;28;20080;-62
2021/04/20 10:29:34;;;;;;;34.35;12.75;;;;;;;18.41;34.20;95947.31;5030157;28;20056;-63
2021/04/20 10:32:03;;;;;;;29.10;10.45;;;;;;;18.44;34.22;95944.03;5029949;28;20048;-63
2021/04/20 10:34:28;;;;;;;18.98;9.02;;;;;;;18.48;34.60;95938.84;5047071;28;20171;-63
2021/04/20 10:36:55;;;;;;;18.50;9.27;;;;;;;18.51;34.17;95939.13;5046624;28;20052;-60
2021/04/20 10:39:22;;;;;;;15.90;7.35;;;;;;;18.55;34.10;95939.34;5048551;28;20056;-64
2021/04/20 10:41:48;;;;;;;21.33;8.55;;;;;;;18.58;33.89;95939.59;5047858;28;20044;-62
2021/04/20 10:44:15;;;;;;;13.73;6.95;;;;;;;18.61;33.82;95932.78;5030064;28;20238;-64
2021/04/20 10:46:41;;;;;;;15.98;6.25;;;;;;;18.64;33.88;95929.53;5029945;28;20533;-64
2021/04/20 10:49:07;;;;;;;11.90;6.30;;;;;;;18.67;34.11;95930.88;5030772;28;20516;-64
2021/04/20 10:51:35;;;;;;;10.48;5.85;;;;;;;18.70;34.03;95927.56;5030005;28;20114;-64
2021/04/20 10:54:01;;;;;;;11.02;5.72;;;;;;;18.73;33.78;95927.03;5046333;28;20045;-63
2021/04/20 10:56:28;;;;;;;14.27;5.75;;;;;;;18.74;33.85;95923.19;5035751;28;20071;-62
2021/04/20 10:58:55;;;;;;;15.23;6.28;;;;;;;18.74;33.44;95917.78;5027881;28;20048;-62
2021/04/20 11:01:24;;;;;;;8.43;5.72;;;;;;;18.75;33.66;95914.78;5027611;28;20096;-63
2021/04/20 11:03:51;;;;;;;10.77;5.75;;;;;;;18.77;33.61;95915.31;5025708;28;20098;-63
2021/04/20 11:06:54;;;;;;;10.40;5.80;;;;;;;18.80;33.32;95916.69;5027623;28;20075;-61
2021/04/20 11:09:28;;;;;;;8.75;5.63;;;;;;;18.84;33.15;95912.31;5044303;28;20075;-60
2021/04/20 11:11:54;;;;;;;8.02;5.28;;;;;;;18.86;33.69;95914.75;5026912;28;20049;-61
2021/04/20 11:14:39;;;;;;;9.98;5.63;;;;;;;18.88;33.36;95910.63;5046877;28;20079;-60
2021/04/20 11:17:08;;;;;;;8.90;6.70;;;;;;;18.91;33.44;95909.25;5026068;28;20458;-61
2021/04/20 11:19:33;;;;;;;7.57;5.30;;;;;;;18.93;33.07;95912.50;5027151;28;20045;-61
2021/04/20 11:21:59;;;;;;;7.47;5.45;;;;;;;18.96;32.90;95909.22;5043741;28;20103;-61
2021/04/20 11:24:25;;;;;;;6.85;5.53;;;;;;;18.96;32.72;95907.31;5027661;28;20072;-62
2021/04/20 11:26:56;;;;;;;7.57;5.03;;;;;;;18.98;32.49;95907.84;5027496;28;20060;-61
2021/04/20 11:29:28;;;;;;;6.80;5.03;;;;;;;19.01;32.38;95901.88;5028593;28;20115;-61
2021/04/20 11:31:55;;;;;;;9.27;6.07;;;;;;;19.02;32.58;95900.75;5059247;28;20053;-62
2021/04/20 11:34:21;;;;;;;6.50;4.60;;;;;;;19.06;32.13;95898.28;5026801;28;20076;-61
2021/04/20 11:36:56;;;;;;;4.47;4.00;;;;;;;19.08;32.25;95898.81;5043283;28;20051;-60
2021/04/20 11:39:29;;;;;;;5.30;4.80;;;;;;;19.11;31.94;95892.00;5026623;28;20045;-60
2021/04/20 11:42:15;;;;;;;5.57;4.35;;;;;;;19.13;32.40;95890.59;5041567;28;20049;-62
2021/04/20 11:44:50;;;;;;;4.25;3.85;;;;;;;19.16;31.94;95891.97;5028739;28;20053;-60
2021/04/20 11:47:16;;;;;;;4.35;3.95;;;;;;;19.18;32.08;95887.03;5041013;28;20703;-61
2021/04/20 11:49:57;;;;;;;5.47;4.50;;;;;;;19.19;31.91;95878.59;5042075;28;20048;-60